createdAt,value
2023-04-01T00:01:18.177Z,22.00
2023-04-01T00:03:46.952Z,20.70
2023-04-01T00:06:18.008Z,18.10
2023-04-01T00:09:00.105Z,18.70
2023-04-01T00:11:29.529Z,17.60
2023-04-01T00:13:57.670Z,19.10
2023-04-01T00:16:26.092Z,18.40
2023-04-01T00:18:57.424Z,16.20
2023-04-01T00:21:26.445Z,19.50
2023-04-01T00:23:54.447Z,19.10
2023-04-01T00:26:23.492Z,16.00
2023-04-01T00:28:52.151Z,14.40
2023-04-01T00:31:21.849Z,13.80
2023-04-01T00:33:49.975Z,12.90
2023-04-01T00:36:22.731Z,14.80
2023-04-01T00:38:51.627Z,16.20
2023-04-01T00:41:22.445Z,14.80
2023-04-01T00:43:54.728Z,15.40
2023-04-01T00:46:22.740Z,18.90
2023-04-01T00:48:57.743Z,18.70
2023-04-01T00:51:30.344Z,15.80
2023-04-01T00:54:02.904Z,18.40
2023-04-01T00:56:44.331Z,20.30
2023-04-01T00:59:17.554Z,17.10
2023-04-01T01:01:45.951Z,17.40
2023-04-01T01:04:36.492Z,16.60
2023-04-01T01:07:26.569Z,19.30
2023-04-01T01:10:11.005Z,19.00
2023-04-01T01:12:42.260Z,16.80
2023-04-01T01:15:10.410Z,14.10
2023-04-01T01:17:44.367Z,15.70
2023-04-01T01:20:26.344Z,18.30
2023-04-01T01:23:05.818Z,15.30
2023-04-01T01:25:52.798Z,19.90
2023-04-01T01:28:30.108Z,17.00
2023-04-01T01:31:06.737Z,21.10
2023-04-01T01:34:07.762Z,17.20
2023-04-01T01:36:38.921Z,22.10
2023-04-01T01:39:13.113Z,18.80
2023-04-01T01:41:43.774Z,23.50
2023-04-01T01:44:17.048Z,22.00
2023-04-01T01:46:47.061Z,15.90
2023-04-01T01:49:17.556Z,13.40
2023-04-01T01:54:18.640Z,16.00
2023-04-01T01:56:51.056Z,22.90
2023-04-01T01:59:22.271Z,21.60
2023-04-01T02:01:57.881Z,21.00
2023-04-01T02:04:28.263Z,28.80
2023-04-01T02:07:23.779Z,35.30
2023-04-01T02:09:53.259Z,30.20
2023-04-01T02:12:23.540Z,29.90
2023-04-01T02:15:08.167Z,27.00
2023-04-01T02:17:44.358Z,23.50
2023-04-01T02:22:57.617Z,20.70
2023-04-01T02:25:29.608Z,24.90
2023-04-01T02:28:00.454Z,22.40
2023-04-01T02:30:32.798Z,21.10
2023-04-01T02:33:02.101Z,19.60
2023-04-01T02:35:37.764Z,22.70
2023-04-01T02:38:07.119Z,21.10
2023-04-01T02:40:50.903Z,20.20
2023-04-01T02:43:20.257Z,22.00
2023-04-01T02:45:49.462Z,21.40
2023-04-01T02:48:17.639Z,21.80
2023-04-01T02:50:47.137Z,23.60
2023-04-01T02:53:15.729Z,23.60
2023-04-01T02:55:44.089Z,25.00
2023-04-01T02:58:13.335Z,25.80
2023-04-01T03:00:55.675Z,27.90
2023-04-01T03:03:23.855Z,25.60
2023-04-01T03:05:52.394Z,23.70
2023-04-01T03:08:20.956Z,23.40
2023-04-01T03:10:48.981Z,22.10
2023-04-01T03:13:17.154Z,22.70
2023-04-01T03:15:45.470Z,19.70
2023-04-01T03:18:14.018Z,21.70
2023-04-01T03:20:42.790Z,22.00
2023-04-01T03:23:12.559Z,22.20
2023-04-01T03:25:41.605Z,21.30
2023-04-01T03:28:10.478Z,19.60
2023-04-01T03:30:42.683Z,20.90
2023-04-01T03:33:13.243Z,21.60
2023-04-01T03:35:41.615Z,21.00
2023-04-01T03:38:09.895Z,24.10
2023-04-01T03:40:39.593Z,22.70
2023-04-01T03:43:09.455Z,23.80
2023-04-01T03:45:46.514Z,24.00
2023-04-01T03:48:20.741Z,24.20
2023-04-01T03:50:49.797Z,26.80
2023-04-01T03:53:19.008Z,21.70
2023-04-01T03:55:48.110Z,25.80
2023-04-01T03:58:17.469Z,23.40
2023-04-01T04:00:46.863Z,24.50
2023-04-01T04:03:15.289Z,22.20
2023-04-01T04:05:50.648Z,24.20
2023-04-01T04:08:19.873Z,24.90
2023-04-01T04:10:50.684Z,22.30
2023-04-01T04:13:19.287Z,20.30
2023-04-01T04:15:51.993Z,23.50
2023-04-01T04:18:20.319Z,25.50
2023-04-01T04:20:51.307Z,22.90
2023-04-01T04:23:20.055Z,23.10
2023-04-01T04:26:15.841Z,21.40
2023-04-01T04:28:44.449Z,25.30
2023-04-01T04:31:19.511Z,23.40
2023-04-01T04:33:48.977Z,25.10
2023-04-01T04:36:17.331Z,24.60
2023-04-01T04:38:45.701Z,23.30
2023-04-01T04:41:16.804Z,23.90
2023-04-01T04:43:56.343Z,23.10
2023-04-01T04:46:26.140Z,27.00
2023-04-01T04:49:00.784Z,24.70
2023-04-01T04:51:29.145Z,26.40
2023-04-01T04:53:57.515Z,26.50
2023-04-01T04:56:34.161Z,28.30
2023-04-01T04:59:07.554Z,26.40
2023-04-01T05:01:50.716Z,25.40
2023-04-01T05:04:19.363Z,29.60
2023-04-01T05:06:47.799Z,25.90
2023-04-01T05:09:16.539Z,28.50
2023-04-01T05:11:56.800Z,26.20
2023-04-01T05:14:26.033Z,26.50
2023-04-01T05:17:02.222Z,24.80
2023-04-01T05:19:30.436Z,26.90
2023-04-01T05:21:58.519Z,24.00
2023-04-01T05:24:26.638Z,23.90
2023-04-01T05:26:57.368Z,25.10
2023-04-01T05:32:02.147Z,27.20
2023-04-01T05:34:30.650Z,26.70
2023-04-01T05:37:01.244Z,25.10
2023-04-01T05:39:29.633Z,26.50
2023-04-01T05:41:58.083Z,23.40
2023-04-01T05:44:26.345Z,24.90
2023-04-01T05:47:05.548Z,22.80
2023-04-01T05:49:34.798Z,18.90
2023-04-01T05:52:03.611Z,22.50
2023-04-01T05:54:32.271Z,24.10
2023-04-01T05:57:03.577Z,20.80
2023-04-01T05:59:36.092Z,21.20
2023-04-01T06:02:04.670Z,20.00
2023-04-01T06:04:39.551Z,20.20
2023-04-01T06:07:18.924Z,22.90
2023-04-01T06:09:47.123Z,25.70
2023-04-01T06:12:37.435Z,25.30
2023-04-01T06:15:31.561Z,20.60
2023-04-01T06:18:41.449Z,18.90
2023-04-01T06:21:43.316Z,19.50
2023-04-01T06:24:26.763Z,19.70
2023-04-01T06:27:11.297Z,20.30
2023-04-01T06:29:52.008Z,21.10
2023-04-01T06:32:30.117Z,19.20
2023-04-01T06:35:21.115Z,17.30
2023-04-01T06:37:52.398Z,31.60
2023-04-01T06:41:01.684Z,25.50
2023-04-01T06:43:42.855Z,25.30
2023-04-01T06:46:33.282Z,22.40
2023-04-01T06:50:15.301Z,28.00
2023-04-01T06:53:07.105Z,23.50
2023-04-01T06:56:11.105Z,19.80
2023-04-01T06:59:03.060Z,16.90
2023-04-01T07:01:39.297Z,19.80
2023-04-01T07:04:14.294Z,16.60
2023-04-01T07:06:54.529Z,17.20
2023-04-01T07:09:32.808Z,19.10
2023-04-01T07:12:39.649Z,16.90
2023-04-01T07:15:40.990Z,17.30
2023-04-01T07:18:23.418Z,21.90
2023-04-01T07:20:53.264Z,26.80
2023-04-01T07:26:36.922Z,25.60
2023-04-01T07:29:17.642Z,26.10
2023-04-01T07:32:05.805Z,27.70
2023-04-01T07:34:48.237Z,31.10
2023-04-01T07:37:26.081Z,29.20
2023-04-01T07:40:26.579Z,28.70
2023-04-01T07:46:13.438Z,26.90
2023-04-01T07:49:06.415Z,28.80
2023-04-01T07:51:50.887Z,23.10
2023-04-01T07:54:34.143Z,22.50
2023-04-01T07:57:11.866Z,21.20
2023-04-01T08:00:18.401Z,23.80
2023-04-01T08:03:17.417Z,20.40
2023-04-01T08:06:19.670Z,19.20
2023-04-01T08:09:31.392Z,20.00
2023-04-01T08:12:29.482Z,19.60
2023-04-01T08:15:28.473Z,20.90
2023-04-01T08:18:21.552Z,21.10
2023-04-01T08:21:04.240Z,21.30
2023-04-01T08:23:38.779Z,21.30
2023-04-01T08:26:24.738Z,28.00
2023-04-01T08:29:31.830Z,23.30
2023-04-01T08:32:08.998Z,23.00
2023-04-01T08:34:43.451Z,17.90
2023-04-01T08:40:33.593Z,19.40
2023-04-01T08:43:08.174Z,21.80
2023-04-01T08:45:57.485Z,21.00
2023-04-01T08:48:34.692Z,19.40
2023-04-01T08:51:06.813Z,22.30
2023-04-01T08:53:37.747Z,19.40
2023-04-01T08:56:28.311Z,20.50
2023-04-01T08:59:09.068Z,22.10
2023-04-01T09:01:54.093Z,19.90
2023-04-01T09:05:07.300Z,16.30
2023-04-01T09:07:57.947Z,19.20
2023-04-01T09:10:56.301Z,16.30
2023-04-01T09:13:57.398Z,16.40
2023-04-01T09:17:03.632Z,18.80
2023-04-01T09:19:53.661Z,18.50
2023-04-01T09:22:43.761Z,16.50
2023-04-01T09:25:40.240Z,15.10
2023-04-01T09:28:14.819Z,15.10
2023-04-01T09:30:57.345Z,17.00
2023-04-01T09:33:45.336Z,14.90
2023-04-01T09:36:15.671Z,15.80
2023-04-01T09:39:29.102Z,14.80
2023-04-01T09:42:12.734Z,14.70
2023-04-01T09:45:00.360Z,13.40
2023-04-01T09:47:50.721Z,13.00
2023-04-01T09:50:49.483Z,13.70
2023-04-01T09:53:29.917Z,12.80
2023-04-01T09:56:28.426Z,14.30
2023-04-01T09:59:35.238Z,14.40
2023-04-01T10:02:56.587Z,14.60
2023-04-01T10:05:58.973Z,13.00
2023-04-01T10:08:54.117Z,13.50
2023-04-01T10:11:44.696Z,12.40
2023-04-01T10:14:16.016Z,12.90
2023-04-01T10:17:04.858Z,11.50
2023-04-01T10:19:36.154Z,13.50
2023-04-01T10:22:36.530Z,14.60
2023-04-01T10:25:20.970Z,15.50
2023-04-01T10:28:11.753Z,14.50
2023-04-01T10:31:13.983Z,15.60
2023-04-01T10:33:51.196Z,13.90
2023-04-01T10:36:49.693Z,14.00
2023-04-01T10:39:43.960Z,12.00
2023-04-01T10:42:45.409Z,8.70
2023-04-01T10:46:22.047Z,12.10
2023-04-01T10:48:58.991Z,10.20
2023-04-01T10:52:13.574Z,12.10
2023-04-01T10:55:44.025Z,10.80
2023-04-01T10:58:55.697Z,13.70
2023-04-01T11:02:17.593Z,13.40
2023-04-01T11:05:34.245Z,9.30
2023-04-01T11:08:35.131Z,11.90
2023-04-01T11:11:19.587Z,9.70
2023-04-01T11:14:09.707Z,10.70
2023-04-01T11:16:58.289Z,10.70
2023-04-01T11:19:48.618Z,8.20
2023-04-01T11:22:36.016Z,9.50
2023-04-01T11:25:19.808Z,7.10
2023-04-01T11:28:12.671Z,11.20
2023-04-01T11:30:40.962Z,8.10
2023-04-01T11:33:39.676Z,9.60
2023-04-01T11:36:23.389Z,7.40
2023-04-01T11:39:22.925Z,8.00
2023-04-01T11:42:21.855Z,8.00
2023-04-01T11:45:31.504Z,9.20
2023-04-01T11:48:26.033Z,7.10
2023-04-01T11:51:08.843Z,11.20
2023-04-01T11:54:03.106Z,7.60
2023-04-01T11:57:17.594Z,8.80
2023-04-01T12:00:00.584Z,7.30
2023-04-01T12:02:52.066Z,6.00
2023-04-01T12:05:51.007Z,6.00
2023-04-01T12:08:30.855Z,7.80
2023-04-01T12:11:16.963Z,7.40
2023-04-01T12:13:54.632Z,5.60
2023-04-01T12:16:33.251Z,5.70
2023-04-01T12:19:33.908Z,7.10
2023-04-01T12:22:28.178Z,5.90
2023-04-01T12:25:52.894Z,7.40
2023-04-01T12:28:43.434Z,7.50
2023-04-01T12:31:39.870Z,7.60
2023-04-01T12:34:46.755Z,7.40
2023-04-01T12:37:23.187Z,8.60
2023-04-01T12:40:35.533Z,9.90
2023-04-01T12:43:16.627Z,9.60
2023-04-01T12:45:56.499Z,9.70
2023-04-01T12:48:41.739Z,10.40
2023-04-01T12:51:38.565Z,7.50
2023-04-01T12:54:26.676Z,8.30
2023-04-01T12:57:44.212Z,7.80
2023-04-01T13:00:47.932Z,7.70
2023-04-01T13:03:51.039Z,9.80
2023-04-01T13:06:29.480Z,10.30
2023-04-01T13:09:28.726Z,10.00
2023-04-01T13:12:20.611Z,7.00
2023-04-01T13:15:07.520Z,8.10
2023-04-01T13:17:55.741Z,7.40
2023-04-01T13:20:43.974Z,5.30
2023-04-01T13:23:35.902Z,9.50
2023-04-01T13:26:44.403Z,8.90
2023-04-01T13:29:16.833Z,9.00
2023-04-01T13:32:04.607Z,13.10
2023-04-01T13:35:05.284Z,7.20
2023-04-01T13:37:55.744Z,9.20
2023-04-01T13:43:46.509Z,8.70
2023-04-01T13:46:22.144Z,8.20
2023-04-01T13:49:15.025Z,7.80
2023-04-01T13:52:09.106Z,6.40
2023-04-01T13:54:59.676Z,7.80
2023-04-01T13:58:05.565Z,5.90
2023-04-01T14:00:55.947Z,6.90
2023-04-01T14:04:07.316Z,6.80
2023-04-01T14:06:47.497Z,7.50
2023-04-01T14:09:37.545Z,6.90
2023-04-01T14:12:25.148Z,6.20
2023-04-01T14:15:08.574Z,5.30
2023-04-01T14:18:13.820Z,7.70
2023-04-01T14:21:07.026Z,5.10
2023-04-01T14:24:01.625Z,6.10
2023-04-01T14:27:26.169Z,4.20
2023-04-01T14:30:42.361Z,6.70
2023-04-01T14:33:41.734Z,4.20
2023-04-01T14:36:43.220Z,6.50
2023-04-01T14:39:36.161Z,5.70
2023-04-01T14:42:24.805Z,4.70
2023-04-01T14:44:58.824Z,6.90
2023-04-01T14:47:47.657Z,5.70
2023-04-01T14:50:21.259Z,4.50
2023-04-01T14:53:26.021Z,4.40
2023-04-01T14:56:00.215Z,7.00
2023-04-01T14:58:58.699Z,7.00
2023-04-01T15:01:43.723Z,8.20
2023-04-01T15:04:21.323Z,4.90
2023-04-01T15:07:02.462Z,4.50
2023-04-01T15:10:04.463Z,5.00
2023-04-01T15:12:48.662Z,4.50
2023-04-01T15:15:48.262Z,4.60
2023-04-01T15:18:34.712Z,6.00
2023-04-01T15:21:39.315Z,6.70
2023-04-01T15:24:13.404Z,8.70
2023-04-01T15:27:01.117Z,5.40
2023-04-01T15:29:29.309Z,5.50
2023-04-01T15:32:16.298Z,6.10
2023-04-01T15:35:08.985Z,5.40
2023-04-01T15:38:18.809Z,6.90
2023-04-01T15:40:46.823Z,5.80
2023-04-01T15:43:36.396Z,4.90
2023-04-01T15:46:26.661Z,11.80
2023-04-01T15:49:24.387Z,6.00
2023-04-01T15:52:12.175Z,8.50
2023-04-01T15:54:58.647Z,7.80
2023-04-01T15:57:34.158Z,8.30
2023-04-01T16:00:50.999Z,6.70
2023-04-01T16:03:20.254Z,7.60
2023-04-01T16:06:00.586Z,9.20
2023-04-01T16:08:55.097Z,8.30
2023-04-01T16:11:40.048Z,7.60
2023-04-01T16:14:56.495Z,7.30
2023-04-01T16:17:39.834Z,12.10
2023-04-01T16:20:21.370Z,8.30
2023-04-01T16:23:05.488Z,9.60
2023-04-01T16:25:48.875Z,6.30
2023-04-01T16:28:32.338Z,7.40
2023-04-01T16:31:26.322Z,7.30
2023-04-01T16:33:57.537Z,7.50
2023-04-01T16:36:31.670Z,5.10
2023-04-01T16:39:31.464Z,6.40
2023-04-01T16:42:26.304Z,7.40
2023-04-01T16:45:21.330Z,4.90
2023-04-01T16:47:54.465Z,9.40
2023-04-01T16:50:26.471Z,12.70
2023-04-01T16:53:17.092Z,12.70
2023-04-01T16:56:01.857Z,13.30
2023-04-01T16:59:01.306Z,7.90
2023-04-01T17:01:56.936Z,9.00
2023-04-01T17:04:43.830Z,7.70
2023-04-01T17:07:47.390Z,6.00
2023-04-01T17:10:34.850Z,6.30
2023-04-01T17:13:09.482Z,5.70
2023-04-01T17:16:17.548Z,4.30
2023-04-01T17:19:00.757Z,6.90
2023-04-01T17:21:53.048Z,6.10
2023-04-01T17:24:49.622Z,4.30
2023-04-01T17:27:23.557Z,4.80
2023-04-01T17:30:00.772Z,7.60
2023-04-01T17:32:51.523Z,5.90
2023-04-01T17:35:41.789Z,5.10
2023-04-01T17:38:58.077Z,6.70
2023-04-01T17:41:38.475Z,5.60
2023-04-01T17:44:20.393Z,4.70
2023-04-01T17:47:18.546Z,6.00
2023-04-01T17:50:03.106Z,8.30
2023-04-01T17:52:43.505Z,8.70
2023-04-01T17:55:30.174Z,12.80
2023-04-01T17:58:06.956Z,13.10
2023-04-01T18:00:54.049Z,15.00
2023-04-01T18:03:59.125Z,15.30
2023-04-01T18:06:57.893Z,14.30
2023-04-01T18:09:44.705Z,14.90
2023-04-01T18:12:35.519Z,26.80
2023-04-01T18:15:31.447Z,21.70
2023-04-01T18:18:20.878Z,28.60
2023-04-01T18:21:00.288Z,27.40
2023-04-01T18:23:52.213Z,22.60
2023-04-01T18:26:38.337Z,23.00
2023-04-01T18:29:32.375Z,21.30
2023-04-01T18:32:38.277Z,18.80
2023-04-01T18:35:27.620Z,16.40
2023-04-01T18:38:06.991Z,19.30
2023-04-01T18:40:47.300Z,19.00
2023-04-01T18:43:40.980Z,23.10
2023-04-01T18:46:44.153Z,20.50
2023-04-01T18:49:20.101Z,20.00
2023-04-01T18:52:00.700Z,19.00
2023-04-01T18:54:43.178Z,20.70
2023-04-01T18:57:19.749Z,16.60
2023-04-01T19:00:04.165Z,15.60
2023-04-01T19:02:42.527Z,21.50
2023-04-01T19:05:20.099Z,22.80
2023-04-01T19:07:52.248Z,16.90
2023-04-01T19:10:48.122Z,18.90
2023-04-01T19:14:13.060Z,16.30
2023-04-01T19:16:55.294Z,18.70
2023-04-01T19:19:46.058Z,16.10
2023-04-01T19:22:32.475Z,14.40
2023-04-01T19:25:25.698Z,16.10
2023-04-01T19:28:14.861Z,14.20
2023-04-01T19:31:09.176Z,12.80
2023-04-01T19:34:06.217Z,17.20
2023-04-01T19:36:51.659Z,17.70
2023-04-01T19:39:51.692Z,18.40
2023-04-01T19:42:51.960Z,20.00
2023-04-01T19:45:20.964Z,21.20
2023-04-01T19:48:33.082Z,19.80
2023-04-01T19:51:10.937Z,19.80
2023-04-01T19:53:48.962Z,15.60
2023-04-01T19:56:55.468Z,17.40
2023-04-01T19:59:36.159Z,16.50
2023-04-01T20:02:39.803Z,18.30
2023-04-01T20:05:36.423Z,18.70
2023-04-01T20:08:12.480Z,17.60
2023-04-01T20:10:57.794Z,13.90
2023-04-01T20:14:07.518Z,18.70
2023-04-01T20:17:18.962Z,23.70
2023-04-01T20:19:54.536Z,22.80
2023-04-01T20:22:38.323Z,19.40
2023-04-01T20:25:30.851Z,24.80
2023-04-01T20:28:22.462Z,22.20
2023-04-01T20:31:26.419Z,18.10
2023-04-01T20:34:18.186Z,22.60
2023-04-01T20:37:22.219Z,19.40
2023-04-01T20:40:01.245Z,26.70
2023-04-01T20:42:55.838Z,22.00
2023-04-01T20:45:58.645Z,24.90
2023-04-01T20:48:36.427Z,22.80
2023-04-01T20:51:29.514Z,26.20
2023-04-01T20:54:30.336Z,29.20
2023-04-01T20:57:15.079Z,22.90
2023-04-01T21:00:06.125Z,31.30
2023-04-01T21:05:40.148Z,21.40
2023-04-01T21:08:20.001Z,27.20
2023-04-01T21:14:00.557Z,23.20
2023-04-01T21:16:35.096Z,23.50
2023-04-01T21:19:22.517Z,26.40
2023-04-01T21:22:26.785Z,27.80
2023-04-01T21:25:10.154Z,29.90
2023-04-01T21:28:03.549Z,26.00
2023-04-01T21:31:08.427Z,21.50
2023-04-01T21:33:45.902Z,21.90
2023-04-01T21:36:20.315Z,19.60
2023-04-01T21:39:15.840Z,18.70
2023-04-01T21:42:16.705Z,23.70
2023-04-01T21:45:04.398Z,21.10
2023-04-01T21:48:15.388Z,19.80
2023-04-01T21:51:08.241Z,22.30
2023-04-01T21:53:52.647Z,25.10
2023-04-01T21:56:56.695Z,16.40
2023-04-01T21:59:26.450Z,17.40
2023-04-01T22:02:30.056Z,19.80
2023-04-01T22:05:11.254Z,15.50
2023-04-01T22:08:00.147Z,17.50
2023-04-01T22:10:49.965Z,19.00
2023-04-01T22:13:28.168Z,16.30
2023-04-01T22:16:08.648Z,19.90
2023-04-01T22:18:47.559Z,17.00
2023-04-01T22:21:53.497Z,18.30
2023-04-01T22:24:48.565Z,19.00
2023-04-01T22:27:44.500Z,21.20
2023-04-01T22:30:35.392Z,19.80
2023-04-01T22:33:03.570Z,19.90
2023-04-01T22:35:47.545Z,16.40
2023-04-01T22:38:57.011Z,18.50
2023-04-01T22:41:37.139Z,17.00
2023-04-01T22:44:31.344Z,18.60
2023-04-01T22:47:42.133Z,22.40
2023-04-01T22:50:21.762Z,26.10
2023-04-01T22:53:04.224Z,21.80
2023-04-01T22:55:39.437Z,20.10
2023-04-01T22:58:36.815Z,19.80
2023-04-01T23:01:18.017Z,21.00
2023-04-01T23:03:50.300Z,20.50
2023-04-01T23:06:46.166Z,20.50
2023-04-01T23:09:37.734Z,22.00
2023-04-01T23:12:16.386Z,20.50
2023-04-01T23:14:48.157Z,17.60
2023-04-01T23:17:43.427Z,15.80
2023-04-01T23:20:48.136Z,13.90
2023-04-01T23:23:45.890Z,16.10
2023-04-01T23:26:35.567Z,16.10
2023-04-01T23:29:05.577Z,17.20
2023-04-01T23:32:02.706Z,14.20
2023-04-01T23:34:37.097Z,15.40
2023-04-01T23:37:13.753Z,14.90
2023-04-01T23:39:57.552Z,16.00
2023-04-01T23:42:34.935Z,22.80
2023-04-01T23:45:08.310Z,17.10
2023-04-01T23:47:42.076Z,19.40
2023-04-01T23:50:23.436Z,17.70
2023-04-01T23:53:04.080Z,18.80
2023-04-01T23:55:34.440Z,17.10
